Time,TemperatureF,DewpointF,PressureIn,WindDirection,WindDirectionDegrees,WindSpeedMPH,WindSpeedGustMPH,Humidity,HourlyPrecipIn,Conditions,Clouds,dailyrainin,SoftwareType,DateUTC
2013-02-11 00:02:00,10.0,7.0,30.33,NNW,330,0.0,-999.0,86,-99.99,,,-99.99,,2013-02-11 05:02:00,
2013-02-11 00:12:00,10.0,7.0,30.33,NNW,330,0.0,-999.0,86,-99.99,,,-99.99,,2013-02-11 05:12:00,
2013-02-11 00:22:00,10.0,7.0,30.33,NNW,330,0.0,-999.0,86,-99.99,,,-99.99,,2013-02-11 05:22:00,
2013-02-11 00:53:00,9.0,6.0,30.32,NNW,330,0.0,-999.0,86,-99.99,,,-99.99,,2013-02-11 05:53:00,
2013-02-11 01:02:00,10.0,7.0,30.31,NNW,330,0.0,-999.0,86,-99.99,,,-99.99,,2013-02-11 06:02:00,
2013-02-11 01:22:00,10.0,7.0,30.31,NNW,330,0.0,-999.0,86,-99.99,,,-99.99,,2013-02-11 06:22:00,
2013-02-11 01:42:00,10.0,7.0,30.30,NNW,330,0.0,-999.0,86,-99.99,,,-99.99,,2013-02-11 06:42:00,
2013-02-11 01:52:00,10.0,7.0,30.30,NNW,330,0.0,-999.0,86,-99.99,,,-99.99,,2013-02-11 06:52:00,
2013-02-11 02:01:00,10.0,7.0,30.29,NNW,330,0.0,-999.0,86,-99.99,,,-99.99,,2013-02-11 07:01:00,
2013-02-11 02:12:00,11.0,8.0,30.28,NNW,330,0.0,-999.0,86,-99.99,,,-99.99,,2013-02-11 07:12:00,
2013-02-11 02:22:00,11.0,8.0,30.28,NNW,330,0.0,-999.0,86,-99.99,,,-99.99,,2013-02-11 07:22:00,
2013-02-11 02:42:00,11.0,8.0,30.28,NNW,330,0.0,-999.0,86,-99.99,,,-99.99,,2013-02-11 07:42:00,
2013-02-11 02:52:00,11.0,8.0,30.28,NNW,330,0.0,-999.0,86,-99.99,,,-99.99,,2013-02-11 07:52:00,
2013-02-11 03:42:00,13.0,10.0,30.25,NNW,330,0.0,-999.0,86,-99.99,,,-99.99,,2013-02-11 08:42:00,
2013-02-11 03:52:00,13.0,10.0,30.25,NNW,330,0.0,-999.0,86,-99.99,,,-99.99,,2013-02-11 08:52:00,
2013-02-11 04:02:00,13.0,10.0,30.25,NNW,330,0.0,-999.0,86,-99.99,,,-99.99,,2013-02-11 09:02:00,
2013-02-11 04:12:00,13.0,10.0,30.25,NNW,330,0.0,-999.0,86,-99.99,,,-99.99,,2013-02-11 09:12:00,
2013-02-11 04:21:00,14.0,11.0,30.24,NNW,330,0.0,-999.0,87,-99.99,,,-99.99,,2013-02-11 09:21:00,
2013-02-11 04:32:00,14.0,11.0,30.24,NNW,330,0.0,-999.0,87,-99.99,,,-99.99,,2013-02-11 09:32:00,
2013-02-11 04:42:00,14.0,11.0,30.24,NNW,330,0.0,-999.0,87,-99.99,,,-99.99,,2013-02-11 09:42:00,
2013-02-11 04:51:00,15.0,12.0,30.23,NNW,330,0.0,-999.0,86,-99.99,,,-99.99,,2013-02-11 09:51:00,
2013-02-11 05:02:00,15.0,12.0,30.23,NNW,330,0.0,-999.0,86,-99.99,,,-99.99,,2013-02-11 10:02:00,
2013-02-11 05:11:00,15.0,12.0,30.23,NNW,330,0.0,-999.0,86,-99.99,,,-99.99,,2013-02-11 10:11:00,
2013-02-11 05:21:00,15.0,12.0,30.23,NNW,330,0.0,-999.0,86,-99.99,,,-99.99,,2013-02-11 10:21:00,
2013-02-11 05:32:00,15.0,12.0,30.23,NNW,330,0.0,-999.0,86,-99.99,,,-99.99,,2013-02-11 10:32:00,
2013-02-11 05:42:00,15.0,12.0,30.23,NNW,330,0.0,-999.0,86,-99.99,,,-99.99,,2013-02-11 10:42:00,
2013-02-11 05:52:00,16.0,13.0,30.22,NNW,330,0.0,-999.0,86,-99.99,,,-99.99,,2013-02-11 10:52:00,
2013-02-11 06:02:00,16.0,13.0,30.22,NNW,330,0.0,-999.0,86,-99.99,,,-99.99,,2013-02-11 11:02:00,
2013-02-11 06:22:00,17.0,14.0,30.20,NNW,330,0.0,-999.0,86,-99.99,,,-99.99,,2013-02-11 11:22:00,
2013-02-11 06:32:00,17.0,14.0,30.20,NNW,330,0.0,-999.0,86,-99.99,,,-99.99,,2013-02-11 11:32:00,
2013-02-11 06:42:00,18.0,15.0,30.19,NNW,330,0.0,-999.0,86,-99.99,,,-99.99,,2013-02-11 11:42:00,
2013-02-11 06:52:00,18.0,15.0,30.19,NNW,330,0.0,-999.0,86,-99.99,,,-99.99,,2013-02-11 11:52:00,
2013-02-11 07:03:00,18.0,15.0,30.19,NNW,330,0.0,-999.0,86,-99.99,,,-99.99,,2013-02-11 12:03:00,
2013-02-11 07:12:00,18.0,15.0,30.19,NNW,330,0.0,-999.0,86,-99.99,,,-99.99,,2013-02-11 12:12:00,
2013-02-11 07:22:00,19.0,16.0,30.19,NNW,330,0.0,-999.0,86,-99.99,,,-99.99,,2013-02-11 12:22:00,
2013-02-11 07:32:00,19.0,16.0,30.19,NNW,330,0.0,-999.0,86,-99.99,,,-99.99,,2013-02-11 12:32:00,
2013-02-11 07:42:00,20.0,17.0,30.17,NNW,330,0.0,-999.0,87,-99.99,,,-99.99,,2013-02-11 12:42:00,
2013-02-11 07:52:00,20.0,17.0,30.17,NNW,330,0.0,-999.0,87,-99.99,,,-99.99,,2013-02-11 12:52:00,
2013-02-11 08:02:00,20.0,16.0,30.16,NNW,330,0.0,-999.0,86,-99.99,,,-99.99,,2013-02-11 13:02:00,
2013-02-11 08:12:00,20.0,16.0,30.16,NNW,330,0.0,-999.0,86,-99.99,,,-99.99,,2013-02-11 13:12:00,
2013-02-11 08:22:00,20.0,16.0,30.16,NNW,330,0.0,-999.0,86,-99.99,,,-99.99,,2013-02-11 13:22:00,
2013-02-11 08:32:00,22.0,19.0,30.14,NNW,330,0.0,-999.0,87,-99.99,,,-99.99,,2013-02-11 13:32:00,
2013-02-11 08:42:00,22.0,19.0,30.14,NNW,330,0.0,-999.0,87,-99.99,,,-99.99,,2013-02-11 13:42:00,
2013-02-11 08:52:00,23.0,20.0,30.12,NNW,330,0.0,-999.0,87,-99.99,,,-99.99,,2013-02-11 13:52:00,
2013-02-11 09:02:00,23.0,20.0,30.12,NNW,330,0.0,-999.0,87,-99.99,,,-99.99,,2013-02-11 14:02:00,
2013-02-11 09:12:00,23.0,20.0,30.12,NNW,330,0.0,-999.0,87,-99.99,,,-99.99,,2013-02-11 14:12:00,
2013-02-11 09:22:00,24.0,21.0,30.10,NNW,330,0.0,-999.0,88,-99.99,,,-99.99,,2013-02-11 14:22:00,
2013-02-11 09:33:00,24.0,21.0,30.10,NNW,330,0.0,-999.0,88,-99.99,,,-99.99,,2013-02-11 14:33:00,
2013-02-11 09:42:00,27.0,24.0,30.06,NW,325,0.0,-999.0,90,-99.99,,,-99.99,,2013-02-11 14:42:00,
2013-02-11 09:53:00,27.0,24.0,30.06,NW,325,0.0,-999.0,90,-99.99,,,-99.99,,2013-02-11 14:53:00,
2013-02-11 10:02:00,27.0,24.0,30.06,NW,325,0.0,-999.0,90,-99.99,,,-99.99,,2013-02-11 15:02:00,
2013-02-11 10:11:00,27.0,24.0,30.06,NW,325,0.0,-999.0,90,-99.99,,,-99.99,,2013-02-11 15:11:00,
2013-02-11 10:22:00,27.0,24.0,30.06,NW,325,0.0,-999.0,90,-99.99,,,-99.99,,2013-02-11 15:22:00,
2013-02-11 10:32:00,27.0,24.0,30.06,NW,325,0.0,-999.0,90,-99.99,,,-99.99,,2013-02-11 15:32:00,
2013-02-11 11:12:00,32.0,30.0,30.00,NW,326,0.0,-999.0,92,-99.99,,,-99.99,,2013-02-11 16:12:00,
2013-02-11 11:22:00,32.0,30.0,30.00,NW,326,0.0,-999.0,92,-99.99,,,-99.99,,2013-02-11 16:22:00,
2013-02-11 11:32:00,32.0,30.0,30.00,NW,326,0.0,-999.0,92,-99.99,,,-99.99,,2013-02-11 16:32:00,
2013-02-11 11:42:00,33.0,31.0,29.94,NW,306,1.0,-999.0,93,-99.99,,,-99.99,,2013-02-11 16:42:00,
2013-02-11 11:52:00,33.0,31.0,29.94,NW,306,1.0,-999.0,93,-99.99,,,-99.99,,2013-02-11 16:52:00,
2013-02-11 12:02:00,33.0,31.0,29.93,NW,306,0.0,-999.0,93,-99.99,,,-99.99,,2013-02-11 17:02:00,
2013-02-11 12:12:00,33.0,31.0,29.93,NW,306,0.0,-999.0,93,-99.99,,,-99.99,,2013-02-11 17:12:00,
2013-02-11 12:22:00,34.0,32.0,29.91,NW,306,0.0,-999.0,93,-99.99,,,-99.99,,2013-02-11 17:22:00,
2013-02-11 12:32:00,35.0,33.0,29.90,NW,313,0.0,-999.0,93,-99.99,,,-99.99,,2013-02-11 17:32:00,
2013-02-11 12:42:00,35.0,33.0,29.90,NW,313,0.0,-999.0,93,-99.99,,,-99.99,,2013-02-11 17:42:00,
2013-02-11 12:53:00,36.0,34.0,29.88,NW,313,0.0,-999.0,94,-99.99,,,-99.99,,2013-02-11 17:53:00,
2013-02-11 13:02:00,36.0,34.0,29.88,NW,313,0.0,-999.0,94,-99.99,,,-99.99,,2013-02-11 18:02:00,
2013-02-11 13:11:00,36.0,34.0,29.88,NW,313,0.0,-999.0,94,-99.99,,,-99.99,,2013-02-11 18:11:00,
2013-02-11 13:22:00,37.0,35.0,29.86,NW,313,0.0,-999.0,94,-99.99,,,-99.99,,2013-02-11 18:22:00,
2013-02-11 13:32:00,37.0,35.0,29.86,NW,313,0.0,-999.0,94,-99.99,,,-99.99,,2013-02-11 18:32:00,
2013-02-11 13:42:00,37.0,35.0,29.86,NW,313,0.0,-999.0,94,-99.99,,,-99.99,,2013-02-11 18:42:00,
2013-02-11 13:53:00,37.0,35.0,29.86,NW,313,0.0,-999.0,94,-99.99,,,-99.99,,2013-02-11 18:53:00,
2013-02-11 14:02:00,37.0,35.0,29.80,NW,313,0.0,-999.0,94,-99.99,,,-99.99,,2013-02-11 19:02:00,
2013-02-11 14:12:00,37.0,35.0,29.80,NW,313,0.0,-999.0,94,-99.99,,,-99.99,,2013-02-11 19:12:00,
2013-02-11 14:22:00,37.0,35.0,29.80,NW,313,0.0,-999.0,94,-99.99,,,-99.99,,2013-02-11 19:22:00,
2013-02-11 14:32:00,39.0,37.0,29.78,NW,313,0.0,-999.0,94,-99.99,,,-99.99,,2013-02-11 19:32:00,
2013-02-11 14:42:00,39.0,37.0,29.78,NW,313,0.0,-999.0,94,-99.99,,,-99.99,,2013-02-11 19:42:00,
2013-02-11 14:51:00,40.0,38.0,29.76,NW,313,0.0,-999.0,94,-99.99,,,-99.99,,2013-02-11 19:51:00,
2013-02-11 15:02:00,40.0,38.0,29.76,NW,313,0.0,-999.0,94,-99.99,,,-99.99,,2013-02-11 20:02:00,
2013-02-11 15:11:00,39.0,37.0,29.76,NW,312,0.0,-999.0,94,-99.99,,,-99.99,,2013-02-11 20:11:00,
2013-02-11 15:22:00,39.0,37.0,29.76,NW,312,0.0,-999.0,94,-99.99,,,-99.99,,2013-02-11 20:22:00,
2013-02-11 15:32:00,39.0,37.0,29.76,NW,312,0.0,-999.0,94,-99.99,,,-99.99,,2013-02-11 20:32:00,
2013-02-11 15:42:00,39.0,37.0,29.76,NW,312,0.0,-999.0,94,-99.99,,,-99.99,,2013-02-11 20:42:00,
2013-02-11 15:52:00,39.0,37.0,29.76,NW,312,0.0,-999.0,94,-99.99,,,-99.99,,2013-02-11 20:52:00,
2013-02-11 16:02:00,41.0,39.0,29.73,ESE,112,0.0,-999.0,94,-99.99,,,-99.99,,2013-02-11 21:02:00,
2013-02-11 16:12:00,41.0,39.0,29.72,ESE,112,0.0,-999.0,94,-99.99,,,-99.99,,2013-02-11 21:12:00,
2013-02-11 16:22:00,41.0,39.0,29.72,ESE,112,0.0,-999.0,94,-99.99,,,-99.99,,2013-02-11 21:22:00,
2013-02-11 16:32:00,41.0,39.0,29.72,ESE,112,0.0,-999.0,94,-99.99,,,-99.99,,2013-02-11 21:32:00,
2013-02-11 16:42:00,40.0,38.0,29.70,ESE,112,0.0,-999.0,94,-99.99,,,-99.99,,2013-02-11 21:42:00,
2013-02-11 16:52:00,40.0,38.0,29.70,ESE,112,0.0,-999.0,94,-99.99,,,-99.99,,2013-02-11 21:52:00,
2013-02-11 17:02:00,39.0,37.0,29.70,ESE,112,0.0,-999.0,94,-99.99,,,-99.99,,2013-02-11 22:02:00,
2013-02-11 17:12:00,39.0,37.0,29.70,ESE,112,0.0,-999.0,94,-99.99,,,-99.99,,2013-02-11 22:12:00,
2013-02-11 17:22:00,39.0,37.0,29.70,ESE,112,0.0,-999.0,94,-99.99,,,-99.99,,2013-02-11 22:22:00,
2013-02-11 17:32:00,39.0,37.0,29.69,ESE,112,0.0,-999.0,94,-99.99,,,-99.99,,2013-02-11 22:32:00,
2013-02-11 17:42:00,39.0,37.0,29.69,ESE,112,0.0,-999.0,94,-99.99,,,-99.99,,2013-02-11 22:42:00,
2013-02-11 17:52:00,39.0,37.0,29.69,ESE,112,0.0,-999.0,94,-99.99,,,-99.99,,2013-02-11 22:52:00,
2013-02-11 18:02:00,39.0,37.0,29.69,ESE,112,0.0,-999.0,94,-99.99,,,-99.99,,2013-02-11 23:02:00,
2013-02-11 18:11:00,39.0,37.0,29.69,ESE,112,0.0,-999.0,94,-99.99,,,-99.99,,2013-02-11 23:11:00,
2013-02-11 18:22:00,39.0,37.0,29.67,ESE,112,0.0,-999.0,94,-99.99,,,-99.99,,2013-02-11 23:22:00,
2013-02-11 18:32:00,39.0,37.0,29.67,ESE,112,0.0,-999.0,94,-99.99,,,-99.99,,2013-02-11 23:32:00,
2013-02-11 18:42:00,39.0,37.0,29.67,ESE,112,0.0,-999.0,94,-99.99,,,-99.99,,2013-02-11 23:42:00,
2013-02-11 18:52:00,39.0,37.0,29.68,ESE,112,0.0,-999.0,94,-99.99,,,-99.99,,2013-02-11 23:52:00,
2013-02-11 19:02:00,40.0,38.0,29.67,ESE,112,1.0,-999.0,94,-99.99,,,-99.99,,2013-02-12 00:02:00,
2013-02-11 19:12:00,40.0,38.0,29.67,ESE,112,1.0,-999.0,94,-99.99,,,-99.99,,2013-02-12 00:12:00,
2013-02-11 19:22:00,40.0,38.0,29.67,ESE,112,0.0,-999.0,94,-99.99,,,-99.99,,2013-02-12 00:22:00,
2013-02-11 19:32:00,40.0,38.0,29.67,ESE,112,0.0,-999.0,94,-99.99,,,-99.99,,2013-02-12 00:32:00,
2013-02-11 19:42:00,40.0,38.0,29.67,ESE,112,0.0,-999.0,94,-99.99,,,-99.99,,2013-02-12 00:42:00,
2013-02-11 19:52:00,40.0,39.0,29.65,ESE,112,0.0,-999.0,95,-99.99,,,-99.99,,2013-02-12 00:52:00,
2013-02-11 20:02:00,40.0,39.0,29.65,ESE,112,0.0,-999.0,95,-99.99,,,-99.99,,2013-02-12 01:02:00,
2013-02-11 20:12:00,40.0,39.0,29.65,ESE,112,0.0,-999.0,95,-99.99,,,-99.99,,2013-02-12 01:12:00,
2013-02-11 20:22:00,40.0,39.0,29.65,ESE,112,0.0,-999.0,95,-99.99,,,-99.99,,2013-02-12 01:22:00,
2013-02-11 20:32:00,40.0,39.0,29.65,ESE,112,0.0,-999.0,95,-99.99,,,-99.99,,2013-02-12 01:32:00,
2013-02-11 21:02:00,39.0,37.0,29.62,ESE,114,0.0,-999.0,94,-99.99,,,-99.99,,2013-02-12 02:02:00,
2013-02-11 21:12:00,40.0,39.0,29.62,ENE,71,1.0,-999.0,95,-99.99,,,-99.99,,2013-02-12 02:12:00,
2013-02-11 21:22:00,40.0,39.0,29.62,ENE,71,1.0,-999.0,95,-99.99,,,-99.99,,2013-02-12 02:22:00,
2013-02-11 21:32:00,40.0,39.0,29.62,ENE,71,0.0,-999.0,95,-99.99,,,-99.99,,2013-02-12 02:32:00,
2013-02-11 21:42:00,40.0,39.0,29.62,ENE,71,0.0,-999.0,95,-99.99,,,-99.99,,2013-02-12 02:42:00,
2013-02-11 21:53:00,41.0,40.0,29.61,ENE,71,1.0,-999.0,95,-99.99,,,-99.99,,2013-02-12 02:53:00,
2013-02-11 22:02:00,41.0,40.0,29.60,ENE,71,1.0,-999.0,95,-99.99,,,-99.99,,2013-02-12 03:02:00,
2013-02-11 22:11:00,41.0,40.0,29.60,ENE,71,0.0,-999.0,95,-99.99,,,-99.99,,2013-02-12 03:11:00,
2013-02-11 22:21:00,41.0,40.0,29.60,ENE,71,0.0,-999.0,95,-99.99,,,-99.99,,2013-02-12 03:21:00,
2013-02-11 22:32:00,41.0,40.0,29.60,ENE,71,0.0,-999.0,95,-99.99,,,-99.99,,2013-02-12 03:32:00,
2013-02-11 22:42:00,42.0,41.0,29.60,SSE,157,0.0,-999.0,95,-99.99,,,-99.99,,2013-02-12 03:42:00,
2013-02-11 22:51:00,42.0,41.0,29.60,SSE,157,0.0,-999.0,95,-99.99,,,-99.99,,2013-02-12 03:51:00,
2013-02-11 23:01:00,42.0,41.0,29.60,SSE,157,0.0,-999.0,95,-99.99,,,-99.99,,2013-02-12 04:01:00,
2013-02-11 23:11:00,42.0,41.0,29.60,SSE,157,0.0,-999.0,95,-99.99,,,-99.99,,2013-02-12 04:11:00,
2013-02-11 23:21:00,42.0,41.0,29.60,WSW,249,0.0,-999.0,95,-99.99,,,-99.99,,2013-02-12 04:21:00,
2013-02-11 23:31:00,39.0,38.0,29.61,WSW,245,1.0,-999.0,95,-99.99,,,-99.99,,2013-02-12 04:31:00,
2013-02-11 23:42:00,39.0,38.0,29.61,WSW,245,1.0,-999.0,95,-99.99,,,-99.99,,2013-02-12 04:42:00,
2013-02-11 23:51:00,39.0,38.0,29.61,WSW,245,1.0,-999.0,95,-99.99,,,-99.99,,2013-02-12 04:51:00,